sensor_id;sensor_type;location;lat;lon;timestamp;temperature;humidity
52943;DHT22;38809;53.300;6.614;2023-02-28T00:00:07;4.60;99.90
52943;DHT22;38809;53.300;6.614;2023-02-28T00:02:39;4.80;99.90
52943;DHT22;38809;53.300;6.614;2023-02-28T00:05:06;4.60;99.90
52943;DHT22;38809;53.300;6.614;2023-02-28T00:07:32;4.70;99.90
52943;DHT22;38809;53.300;6.614;2023-02-28T00:09:57;4.80;99.90
52943;DHT22;38809;53.300;6.614;2023-02-28T00:12:23;5.30;99.90
52943;DHT22;38809;53.300;6.614;2023-02-28T00:14:49;4.70;99.90
52943;DHT22;38809;53.300;6.614;2023-02-28T00:17:15;5.30;99.90
52943;DHT22;38809;53.300;6.614;2023-02-28T00:19:43;4.90;99.90
52943;DHT22;38809;53.300;6.614;2023-02-28T00:22:09;4.70;99.90
52943;DHT22;38809;53.300;6.614;2023-02-28T00:24:35;4.80;99.90
52943;DHT22;38809;53.300;6.614;2023-02-28T00:27:00;4.60;99.90
52943;DHT22;38809;53.300;6.614;2023-02-28T00:29:26;4.90;99.90
52943;DHT22;38809;53.300;6.614;2023-02-28T00:31:51;4.90;99.90
52943;DHT22;38809;53.300;6.614;2023-02-28T00:34:17;5.10;99.90
52943;DHT22;38809;53.300;6.614;2023-02-28T00:36:43;4.60;99.90
52943;DHT22;38809;53.300;6.614;2023-02-28T00:39:11;4.80;99.90
52943;DHT22;38809;53.300;6.614;2023-02-28T00:41:37;4.90;99.90
52943;DHT22;38809;53.300;6.614;2023-02-28T00:44:02;4.50;99.90
52943;DHT22;38809;53.300;6.614;2023-02-28T00:46:28;4.90;99.90
52943;DHT22;38809;53.300;6.614;2023-02-28T00:48:53;4.50;99.90
52943;DHT22;38809;53.300;6.614;2023-02-28T00:51:19;4.50;99.90
52943;DHT22;38809;53.300;6.614;2023-02-28T00:53:44;4.80;99.90
52943;DHT22;38809;53.300;6.614;2023-02-28T00:56:10;4.70;99.90
52943;DHT22;38809;53.300;6.614;2023-02-28T00:58:36;4.50;99.90
52943;DHT22;38809;53.300;6.614;2023-02-28T01:01:01;4.80;99.90
52943;DHT22;38809;53.300;6.614;2023-02-28T01:03:27;4.70;99.90
52943;DHT22;38809;53.300;6.614;2023-02-28T01:05:53;4.70;99.90
52943;DHT22;38809;53.300;6.614;2023-02-28T01:08:18;4.70;99.90
52943;DHT22;38809;53.300;6.614;2023-02-28T01:10:44;4.70;99.90
52943;DHT22;38809;53.300;6.614;2023-02-28T01:13:10;4.90;99.90
52943;DHT22;38809;53.300;6.614;2023-02-28T01:15:36;5.00;99.90
52943;DHT22;38809;53.300;6.614;2023-02-28T01:18:02;5.50;99.90
52943;DHT22;38809;53.300;6.614;2023-02-28T01:20:28;4.80;99.90
52943;DHT22;38809;53.300;6.614;2023-02-28T01:22:53;4.70;99.90
52943;DHT22;38809;53.300;6.614;2023-02-28T01:25:19;5.30;99.90
52943;DHT22;38809;53.300;6.614;2023-02-28T01:27:44;4.40;99.90
52943;DHT22;38809;53.300;6.614;2023-02-28T01:30:11;4.40;99.90
52943;DHT22;38809;53.300;6.614;2023-02-28T01:32:36;4.70;99.90
52943;DHT22;38809;53.300;6.614;2023-02-28T01:35:02;4.40;99.90
52943;DHT22;38809;53.300;6.614;2023-02-28T01:37:27;4.70;99.90
52943;DHT22;38809;53.300;6.614;2023-02-28T01:39:53;4.80;99.90
52943;DHT22;38809;53.300;6.614;2023-02-28T01:42:19;4.50;99.90
52943;DHT22;38809;53.300;6.614;2023-02-28T01:47:19;4.60;99.90
52943;DHT22;38809;53.300;6.614;2023-02-28T01:49:45;4.60;99.90
52943;DHT22;38809;53.300;6.614;2023-02-28T01:52:11;5.40;99.90
52943;DHT22;38809;53.300;6.614;2023-02-28T01:54:40;4.70;99.90
52943;DHT22;38809;53.300;6.614;2023-02-28T01:57:07;5.00;99.90
52943;DHT22;38809;53.300;6.614;2023-02-28T01:59:50;4.80;99.90
52943;DHT22;38809;53.300;6.614;2023-02-28T02:02:18;4.70;99.90
52943;DHT22;38809;53.300;6.614;2023-02-28T02:04:54;4.70;99.90
52943;DHT22;38809;53.300;6.614;2023-02-28T02:07:20;4.80;99.90
52943;DHT22;38809;53.300;6.614;2023-02-28T02:09:46;4.80;99.90
52943;DHT22;38809;53.300;6.614;2023-02-28T02:17:42;5.10;99.90
52943;DHT22;38809;53.300;6.614;2023-02-28T02:28:15;4.60;99.90
52943;DHT22;38809;53.300;6.614;2023-02-28T02:36:12;4.80;99.90
52943;DHT22;38809;53.300;6.614;2023-02-28T02:41:17;4.80;99.90
52943;DHT22;38809;53.300;6.614;2023-02-28T02:43:56;4.70;99.90
52943;DHT22;38809;53.300;6.614;2023-02-28T02:46:26;4.80;99.90
52943;DHT22;38809;53.300;6.614;2023-02-28T02:48:54;5.00;99.90
52943;DHT22;38809;53.300;6.614;2023-02-28T02:51:21;4.70;99.90
52943;DHT22;38809;53.300;6.614;2023-02-28T02:54:02;4.80;99.90
52943;DHT22;38809;53.300;6.614;2023-02-28T02:56:29;5.00;99.90
52943;DHT22;38809;53.300;6.614;2023-02-28T02:59:00;4.90;99.90
52943;DHT22;38809;53.300;6.614;2023-02-28T03:01:26;5.10;99.90
52943;DHT22;38809;53.300;6.614;2023-02-28T03:03:57;4.80;99.90
52943;DHT22;38809;53.300;6.614;2023-02-28T03:06:24;5.00;99.90
52943;DHT22;38809;53.300;6.614;2023-02-28T03:08:50;4.70;99.90
52943;DHT22;38809;53.300;6.614;2023-02-28T03:11:16;4.70;99.90
52943;DHT22;38809;53.300;6.614;2023-02-28T03:21:38;5.00;99.90
52943;DHT22;38809;53.300;6.614;2023-02-28T03:24:18;4.70;99.90
52943;DHT22;38809;53.300;6.614;2023-02-28T03:26:55;4.60;99.90
52943;DHT22;38809;53.300;6.614;2023-02-28T03:29:32;4.80;99.90
52943;DHT22;38809;53.300;6.614;2023-02-28T03:34:45;4.80;99.90
52943;DHT22;38809;53.300;6.614;2023-02-28T03:37:13;4.90;99.90
52943;DHT22;38809;53.300;6.614;2023-02-28T03:39:51;4.70;99.90
52943;DHT22;38809;53.300;6.614;2023-02-28T03:42:23;4.60;99.90
52943;DHT22;38809;53.300;6.614;2023-02-28T03:44:50;4.70;99.90
52943;DHT22;38809;53.300;6.614;2023-02-28T03:47:46;4.90;99.90
52943;DHT22;38809;53.300;6.614;2023-02-28T03:50:16;4.90;99.90
52943;DHT22;38809;53.300;6.614;2023-02-28T03:52:49;5.80;99.90
52943;DHT22;38809;53.300;6.614;2023-02-28T03:55:16;4.60;99.90
52943;DHT22;38809;53.300;6.614;2023-02-28T03:58:05;4.70;99.90
52943;DHT22;38809;53.300;6.614;2023-02-28T04:00:40;4.80;99.90
52943;DHT22;38809;53.300;6.614;2023-02-28T04:03:08;4.90;99.90
52943;DHT22;38809;53.300;6.614;2023-02-28T04:05:49;5.00;99.90
52943;DHT22;38809;53.300;6.614;2023-02-28T04:08:15;4.60;99.90
52943;DHT22;38809;53.300;6.614;2023-02-28T04:10:40;4.50;99.90
52943;DHT22;38809;53.300;6.614;2023-02-28T04:13:09;4.50;99.90
52943;DHT22;38809;53.300;6.614;2023-02-28T04:15:34;4.80;99.90
52943;DHT22;38809;53.300;6.614;2023-02-28T04:18:00;4.60;99.90
52943;DHT22;38809;53.300;6.614;2023-02-28T04:20:25;5.40;99.90
52943;DHT22;38809;53.300;6.614;2023-02-28T04:22:51;4.70;99.90
52943;DHT22;38809;53.300;6.614;2023-02-28T04:25:16;5.40;99.90
52943;DHT22;38809;53.300;6.614;2023-02-28T04:27:42;4.70;99.90
52943;DHT22;38809;53.300;6.614;2023-02-28T04:30:10;4.70;99.90
52943;DHT22;38809;53.300;6.614;2023-02-28T04:32:35;4.50;99.90
52943;DHT22;38809;53.300;6.614;2023-02-28T04:35:01;3.60;99.90
52943;DHT22;38809;53.300;6.614;2023-02-28T04:37:27;4.60;99.90
52943;DHT22;38809;53.300;6.614;2023-02-28T04:39:54;4.40;99.90
52943;DHT22;38809;53.300;6.614;2023-02-28T04:42:20;4.40;99.90
52943;DHT22;38809;53.300;6.614;2023-02-28T04:44:45;4.50;99.90
52943;DHT22;38809;53.300;6.614;2023-02-28T04:47:12;4.50;99.90
52943;DHT22;38809;53.300;6.614;2023-02-28T04:49:38;4.70;99.90
52943;DHT22;38809;53.300;6.614;2023-02-28T04:52:03;4.30;99.90
52943;DHT22;38809;53.300;6.614;2023-02-28T04:54:29;4.40;99.90
52943;DHT22;38809;53.300;6.614;2023-02-28T04:56:55;4.40;99.90
52943;DHT22;38809;53.300;6.614;2023-02-28T04:59:20;4.30;99.90
52943;DHT22;38809;53.300;6.614;2023-02-28T05:01:47;4.30;99.90
52943;DHT22;38809;53.300;6.614;2023-02-28T05:04:13;4.50;99.90
52943;DHT22;38809;53.300;6.614;2023-02-28T05:06:38;4.50;99.90
52943;DHT22;38809;53.300;6.614;2023-02-28T05:09:04;4.70;99.90
52943;DHT22;38809;53.300;6.614;2023-02-28T05:11:30;4.40;99.90
52943;DHT22;38809;53.300;6.614;2023-02-28T05:14:03;4.20;99.90
52943;DHT22;38809;53.300;6.614;2023-02-28T05:16:29;4.50;99.90
52943;DHT22;38809;53.300;6.614;2023-02-28T05:18:55;4.50;99.90
52943;DHT22;38809;53.300;6.614;2023-02-28T05:23:49;4.40;99.90
52943;DHT22;38809;53.300;6.614;2023-02-28T05:26:14;4.30;99.90
52943;DHT22;38809;53.300;6.614;2023-02-28T05:28:40;4.20;99.90
52943;DHT22;38809;53.300;6.614;2023-02-28T05:31:05;4.40;99.90
52943;DHT22;38809;53.300;6.614;2023-02-28T05:33:31;4.30;99.90
52943;DHT22;38809;53.300;6.614;2023-02-28T05:35:56;4.40;99.90
52943;DHT22;38809;53.300;6.614;2023-02-28T05:38:22;4.20;99.90
52943;DHT22;38809;53.300;6.614;2023-02-28T05:40:47;4.10;99.90
52943;DHT22;38809;53.300;6.614;2023-02-28T05:43:13;4.30;99.90
52943;DHT22;38809;53.300;6.614;2023-02-28T05:45:38;4.70;99.90
52943;DHT22;38809;53.300;6.614;2023-02-28T05:48:04;4.30;99.90
52943;DHT22;38809;53.300;6.614;2023-02-28T05:50:30;4.20;99.90
52943;DHT22;38809;53.300;6.614;2023-02-28T05:52:55;4.90;99.90
52943;DHT22;38809;53.300;6.614;2023-02-28T05:55:21;5.10;99.90
52943;DHT22;38809;53.300;6.614;2023-02-28T05:57:47;4.30;99.90
52943;DHT22;38809;53.300;6.614;2023-02-28T06:00:12;4.10;99.90
52943;DHT22;38809;53.300;6.614;2023-02-28T06:02:40;4.20;99.90
52943;DHT22;38809;53.300;6.614;2023-02-28T06:05:08;4.20;99.90
52943;DHT22;38809;53.300;6.614;2023-02-28T06:07:38;4.20;99.90
52943;DHT22;38809;53.300;6.614;2023-02-28T06:10:03;4.20;99.90
52943;DHT22;38809;53.300;6.614;2023-02-28T06:12:29;4.00;99.90
52943;DHT22;38809;53.300;6.614;2023-02-28T06:14:54;4.30;99.90
52943;DHT22;38809;53.300;6.614;2023-02-28T06:17:20;4.10;99.90
52943;DHT22;38809;53.300;6.614;2023-02-28T06:19:46;4.00;99.90
52943;DHT22;38809;53.300;6.614;2023-02-28T06:22:13;4.30;99.90
52943;DHT22;38809;53.300;6.614;2023-02-28T06:24:38;4.10;99.90
52943;DHT22;38809;53.300;6.614;2023-02-28T06:27:04;4.00;99.90
52943;DHT22;38809;53.300;6.614;2023-02-28T06:29:31;4.50;99.90
52943;DHT22;38809;53.300;6.614;2023-02-28T06:31:56;4.20;99.90
52943;DHT22;38809;53.300;6.614;2023-02-28T06:34:22;4.00;99.90
52943;DHT22;38809;53.300;6.614;2023-02-28T06:36:49;4.20;99.90
52943;DHT22;38809;53.300;6.614;2023-02-28T06:39:15;4.30;99.90
52943;DHT22;38809;53.300;6.614;2023-02-28T06:41:40;4.10;99.90
52943;DHT22;38809;53.300;6.614;2023-02-28T06:44:12;3.90;99.90
52943;DHT22;38809;53.300;6.614;2023-02-28T06:46:39;3.90;99.90
52943;DHT22;38809;53.300;6.614;2023-02-28T06:49:06;4.40;99.90
52943;DHT22;38809;53.300;6.614;2023-02-28T06:51:34;5.90;99.90
52943;DHT22;38809;53.300;6.614;2023-02-28T06:54:00;4.20;99.90
52943;DHT22;38809;53.300;6.614;2023-02-28T06:56:25;3.90;99.90
52943;DHT22;38809;53.300;6.614;2023-02-28T06:58:51;3.90;99.90
52943;DHT22;38809;53.300;6.614;2023-02-28T07:01:18;4.60;99.90
52943;DHT22;38809;53.300;6.614;2023-02-28T07:03:44;3.90;99.90
52943;DHT22;38809;53.300;6.614;2023-02-28T07:06:10;4.00;99.90
52943;DHT22;38809;53.300;6.614;2023-02-28T07:08:36;5.00;99.90
52943;DHT22;38809;53.300;6.614;2023-02-28T07:11:01;4.30;99.90
52943;DHT22;38809;53.300;6.614;2023-02-28T07:13:27;4.10;99.90
52943;DHT22;38809;53.300;6.614;2023-02-28T07:15:53;3.80;99.90
52943;DHT22;38809;53.300;6.614;2023-02-28T07:18:19;4.20;99.90
52943;DHT22;38809;53.300;6.614;2023-02-28T07:20:45;4.10;99.90
52943;DHT22;38809;53.300;6.614;2023-02-28T07:23:11;4.10;99.90
52943;DHT22;38809;53.300;6.614;2023-02-28T07:25:36;3.80;99.90
52943;DHT22;38809;53.300;6.614;2023-02-28T07:28:02;4.10;99.90
52943;DHT22;38809;53.300;6.614;2023-02-28T07:30:27;3.90;99.90
52943;DHT22;38809;53.300;6.614;2023-02-28T07:32:53;3.70;99.90
52943;DHT22;38809;53.300;6.614;2023-02-28T07:35:21;4.00;99.90
52943;DHT22;38809;53.300;6.614;2023-02-28T07:37:47;4.10;99.90
52943;DHT22;38809;53.300;6.614;2023-02-28T07:40:13;5.40;99.90
52943;DHT22;38809;53.300;6.614;2023-02-28T07:42:39;3.80;99.90
52943;DHT22;38809;53.300;6.614;2023-02-28T07:45:05;3.80;99.90
52943;DHT22;38809;53.300;6.614;2023-02-28T07:47:31;3.80;99.90
52943;DHT22;38809;53.300;6.614;2023-02-28T07:49:57;4.00;99.90
52943;DHT22;38809;53.300;6.614;2023-02-28T07:52:22;5.50;99.90
52943;DHT22;38809;53.300;6.614;2023-02-28T07:54:49;3.70;99.90
52943;DHT22;38809;53.300;6.614;2023-02-28T07:57:14;4.00;99.90
52943;DHT22;38809;53.300;6.614;2023-02-28T07:59:40;3.60;99.90
52943;DHT22;38809;53.300;6.614;2023-02-28T08:02:06;4.30;99.90
52943;DHT22;38809;53.300;6.614;2023-02-28T08:04:32;3.40;99.90
52943;DHT22;38809;53.300;6.614;2023-02-28T08:06:57;3.60;99.90
52943;DHT22;38809;53.300;6.614;2023-02-28T08:09:23;3.80;99.90
52943;DHT22;38809;53.300;6.614;2023-02-28T08:11:49;3.70;99.90
52943;DHT22;38809;53.300;6.614;2023-02-28T08:14:14;3.60;99.90
52943;DHT22;38809;53.300;6.614;2023-02-28T08:16:40;4.40;99.90
52943;DHT22;38809;53.300;6.614;2023-02-28T08:19:05;4.30;99.90
52943;DHT22;38809;53.300;6.614;2023-02-28T08:21:31;4.60;99.90
52943;DHT22;38809;53.300;6.614;2023-02-28T08:23:59;3.70;99.90
52943;DHT22;38809;53.300;6.614;2023-02-28T08:26:24;4.10;99.90
52943;DHT22;38809;53.300;6.614;2023-02-28T08:28:51;4.10;99.90
52943;DHT22;38809;53.300;6.614;2023-02-28T08:31:17;3.90;99.90
52943;DHT22;38809;53.300;6.614;2023-02-28T08:33:43;4.20;99.90
52943;DHT22;38809;53.300;6.614;2023-02-28T08:36:10;3.90;99.90
52943;DHT22;38809;53.300;6.614;2023-02-28T08:38:36;3.90;99.90
52943;DHT22;38809;53.300;6.614;2023-02-28T08:41:02;4.10;99.90
52943;DHT22;38809;53.300;6.614;2023-02-28T08:43:29;4.30;99.90
52943;DHT22;38809;53.300;6.614;2023-02-28T08:45:55;4.60;99.90
52943;DHT22;38809;53.300;6.614;2023-02-28T08:48:22;4.40;99.90
52943;DHT22;38809;53.300;6.614;2023-02-28T08:51:21;5.20;99.90
52943;DHT22;38809;53.300;6.614;2023-02-28T08:53:42;4.50;99.90
52943;DHT22;38809;53.300;6.614;2023-02-28T08:56:09;4.70;99.90
52943;DHT22;38809;53.300;6.614;2023-02-28T08:58:35;4.90;99.90
52943;DHT22;38809;53.300;6.614;2023-02-28T09:01:00;4.70;99.90
52943;DHT22;38809;53.300;6.614;2023-02-28T09:03:32;4.80;99.90
52943;DHT22;38809;53.300;6.614;2023-02-28T09:06:00;5.10;99.90
52943;DHT22;38809;53.300;6.614;2023-02-28T09:08:27;4.90;99.90
52943;DHT22;38809;53.300;6.614;2023-02-28T09:10:52;5.40;99.90
52943;DHT22;38809;53.300;6.614;2023-02-28T09:13:19;5.00;99.90
52943;DHT22;38809;53.300;6.614;2023-02-28T09:15:45;5.00;99.90
52943;DHT22;38809;53.300;6.614;2023-02-28T09:18:10;5.60;99.90
52943;DHT22;38809;53.300;6.614;2023-02-28T09:20:40;5.50;99.90
52943;DHT22;38809;53.300;6.614;2023-02-28T09:23:06;5.40;99.90
52943;DHT22;38809;53.300;6.614;2023-02-28T09:25:32;5.40;99.90
52943;DHT22;38809;53.300;6.614;2023-02-28T09:27:57;5.50;99.90
52943;DHT22;38809;53.300;6.614;2023-02-28T09:30:23;5.40;99.90
52943;DHT22;38809;53.300;6.614;2023-02-28T09:32:49;5.40;99.90
52943;DHT22;38809;53.300;6.614;2023-02-28T09:35:17;5.70;99.90
52943;DHT22;38809;53.300;6.614;2023-02-28T09:37:43;5.90;99.90
52943;DHT22;38809;53.300;6.614;2023-02-28T09:40:09;5.70;99.90
52943;DHT22;38809;53.300;6.614;2023-02-28T09:42:35;6.30;99.90
52943;DHT22;38809;53.300;6.614;2023-02-28T09:45:02;6.80;99.90
52943;DHT22;38809;53.300;6.614;2023-02-28T09:47:33;6.60;99.90
52943;DHT22;38809;53.300;6.614;2023-02-28T09:50:03;6.70;99.90
52943;DHT22;38809;53.300;6.614;2023-02-28T09:52:32;6.50;99.90
52943;DHT22;38809;53.300;6.614;2023-02-28T09:55:00;6.70;99.90
52943;DHT22;38809;53.300;6.614;2023-02-28T09:57:39;6.50;99.90
52943;DHT22;38809;53.300;6.614;2023-02-28T10:00:17;6.40;99.90
52943;DHT22;38809;53.300;6.614;2023-02-28T10:05:13;6.40;99.90
52943;DHT22;38809;53.300;6.614;2023-02-28T10:07:49;6.20;99.90
52943;DHT22;38809;53.300;6.614;2023-02-28T10:10:18;6.30;99.90
52943;DHT22;38809;53.300;6.614;2023-02-28T10:12:45;6.70;99.90
52943;DHT22;38809;53.300;6.614;2023-02-28T10:15:15;6.60;99.90
52943;DHT22;38809;53.300;6.614;2023-02-28T10:17:42;6.90;99.90
52943;DHT22;38809;53.300;6.614;2023-02-28T10:20:12;7.30;99.90
52943;DHT22;38809;53.300;6.614;2023-02-28T10:25:25;6.90;99.90
52943;DHT22;38809;53.300;6.614;2023-02-28T10:28:33;7.30;99.90
52943;DHT22;38809;53.300;6.614;2023-02-28T10:30:41;7.70;99.90
52943;DHT22;38809;53.300;6.614;2023-02-28T10:33:11;7.60;99.90
52943;DHT22;38809;53.300;6.614;2023-02-28T10:35:43;7.30;99.90
52943;DHT22;38809;53.300;6.614;2023-02-28T10:42:55;7.10;99.90
52943;DHT22;38809;53.300;6.614;2023-02-28T10:45:21;7.90;99.90
52943;DHT22;38809;53.300;6.614;2023-02-28T10:50:32;8.30;99.90
52943;DHT22;38809;53.300;6.614;2023-02-28T10:55:42;7.60;99.90
52943;DHT22;38809;53.300;6.614;2023-02-28T10:58:21;7.90;99.90
52943;DHT22;38809;53.300;6.614;2023-02-28T11:00:48;7.80;99.90
52943;DHT22;38809;53.300;6.614;2023-02-28T11:05:46;8.10;99.90
52943;DHT22;38809;53.300;6.614;2023-02-28T11:08:15;7.90;99.90
52943;DHT22;38809;53.300;6.614;2023-02-28T11:10:46;8.00;99.90
52943;DHT22;38809;53.300;6.614;2023-02-28T11:13:20;8.10;99.90
52943;DHT22;38809;53.300;6.614;2023-02-28T11:15:55;8.30;99.90
52943;DHT22;38809;53.300;6.614;2023-02-28T11:18:41;8.30;99.90
52943;DHT22;38809;53.300;6.614;2023-02-28T11:21:09;8.40;99.90
52943;DHT22;38809;53.300;6.614;2023-02-28T11:23:37;8.00;99.90
52943;DHT22;38809;53.300;6.614;2023-02-28T11:26:05;8.30;99.90
52943;DHT22;38809;53.300;6.614;2023-02-28T11:28:40;7.80;99.90
52943;DHT22;38809;53.300;6.614;2023-02-28T11:33:54;8.70;99.90
52943;DHT22;38809;53.300;6.614;2023-02-28T11:38:47;9.10;99.90
52943;DHT22;38809;53.300;6.614;2023-02-28T11:44:09;8.90;99.90
52943;DHT22;38809;53.300;6.614;2023-02-28T11:46:41;9.00;99.90
52943;DHT22;38809;53.300;6.614;2023-02-28T11:51:59;9.00;99.90
52943;DHT22;38809;53.300;6.614;2023-02-28T12:02:35;8.40;99.90
52943;DHT22;38809;53.300;6.614;2023-02-28T12:05:23;8.10;99.90
52943;DHT22;38809;53.300;6.614;2023-02-28T12:11:09;8.30;99.90
52943;DHT22;38809;53.300;6.614;2023-02-28T12:26:46;8.50;99.90
52943;DHT22;38809;53.300;6.614;2023-02-28T12:34:39;8.30;99.90
52943;DHT22;38809;53.300;6.614;2023-02-28T12:37:29;8.00;99.90
52943;DHT22;38809;53.300;6.614;2023-02-28T12:40:02;8.10;99.90
52943;DHT22;38809;53.300;6.614;2023-02-28T12:42:36;8.40;99.90
52943;DHT22;38809;53.300;6.614;2023-02-28T12:47:59;9.00;99.90
52943;DHT22;38809;53.300;6.614;2023-02-28T12:50:27;8.50;99.90
52943;DHT22;38809;53.300;6.614;2023-02-28T12:55:56;8.10;99.90
52943;DHT22;38809;53.300;6.614;2023-02-28T13:09:34;8.20;99.90
52943;DHT22;38809;53.300;6.614;2023-02-28T13:12:00;7.80;99.90
52943;DHT22;38809;53.300;6.614;2023-02-28T13:14:37;7.80;99.90
52943;DHT22;38809;53.300;6.614;2023-02-28T13:19:37;8.40;99.90
52943;DHT22;38809;53.300;6.614;2023-02-28T13:22:04;8.60;99.90
52943;DHT22;38809;53.300;6.614;2023-02-28T13:24:42;8.70;99.90
52943;DHT22;38809;53.300;6.614;2023-02-28T13:29:40;8.90;99.90
52943;DHT22;38809;53.300;6.614;2023-02-28T13:39:56;8.70;99.90
52943;DHT22;38809;53.300;6.614;2023-02-28T13:58:40;7.60;99.90
52943;DHT22;38809;53.300;6.614;2023-02-28T14:01:18;7.30;99.90
52943;DHT22;38809;53.300;6.614;2023-02-28T14:04:15;7.70;99.90
52943;DHT22;38809;53.300;6.614;2023-02-28T14:06:56;7.30;99.90
52943;DHT22;38809;53.300;6.614;2023-02-28T14:09:32;7.60;99.90
52943;DHT22;38809;53.300;6.614;2023-02-28T14:12:51;7.80;99.90
52943;DHT22;38809;53.300;6.614;2023-02-28T14:15:23;7.70;99.90
52943;DHT22;38809;53.300;6.614;2023-02-28T14:17:56;7.90;99.90
52943;DHT22;38809;53.300;6.614;2023-02-28T14:20:27;7.80;99.90
52943;DHT22;38809;53.300;6.614;2023-02-28T14:23:07;7.80;99.90
52943;DHT22;38809;53.300;6.614;2023-02-28T14:37:15;7.40;99.90
52943;DHT22;38809;53.300;6.614;2023-02-28T14:39:44;7.40;99.90
52943;DHT22;38809;53.300;6.614;2023-02-28T14:42:31;7.40;99.90
52943;DHT22;38809;53.300;6.614;2023-02-28T14:44:57;7.50;99.90
52943;DHT22;38809;53.300;6.614;2023-02-28T14:47:27;7.60;99.90
52943;DHT22;38809;53.300;6.614;2023-02-28T14:49:53;7.70;99.90
52943;DHT22;38809;53.300;6.614;2023-02-28T14:52:26;7.30;99.90
52943;DHT22;38809;53.300;6.614;2023-02-28T14:54:59;7.20;99.90
52943;DHT22;38809;53.300;6.614;2023-02-28T14:57:31;7.20;99.90
52943;DHT22;38809;53.300;6.614;2023-02-28T15:00:46;7.20;99.90
52943;DHT22;38809;53.300;6.614;2023-02-28T15:03:39;7.10;99.90
52943;DHT22;38809;53.300;6.614;2023-02-28T15:06:16;7.20;99.90
52943;DHT22;38809;53.300;6.614;2023-02-28T15:08:43;7.30;99.90
52943;DHT22;38809;53.300;6.614;2023-02-28T15:11:18;7.30;99.90
52943;DHT22;38809;53.300;6.614;2023-02-28T15:13:49;7.30;99.90
52943;DHT22;38809;53.300;6.614;2023-02-28T15:16:39;6.90;99.90
52943;DHT22;38809;53.300;6.614;2023-02-28T15:19:11;7.10;99.90
52943;DHT22;38809;53.300;6.614;2023-02-28T15:21:43;6.90;99.90
52943;DHT22;38809;53.300;6.614;2023-02-28T15:26:58;7.10;99.90
52943;DHT22;38809;53.300;6.614;2023-02-28T15:29:27;7.10;99.90
52943;DHT22;38809;53.300;6.614;2023-02-28T15:32:02;7.00;99.90
52943;DHT22;38809;53.300;6.614;2023-02-28T15:34:40;7.00;99.90
52943;DHT22;38809;53.300;6.614;2023-02-28T15:39:50;6.90;99.90
52943;DHT22;38809;53.300;6.614;2023-02-28T15:42:20;6.90;99.90
52943;DHT22;38809;53.300;6.614;2023-02-28T15:44:47;6.80;99.90
52943;DHT22;38809;53.300;6.614;2023-02-28T15:47:26;6.90;99.90
52943;DHT22;38809;53.300;6.614;2023-02-28T15:50:02;7.30;99.90
52943;DHT22;38809;53.300;6.614;2023-02-28T15:52:39;6.70;99.90
52943;DHT22;38809;53.300;6.614;2023-02-28T15:55:20;6.90;99.90
52943;DHT22;38809;53.300;6.614;2023-02-28T15:57:50;6.90;99.90
52943;DHT22;38809;53.300;6.614;2023-02-28T16:00:20;7.00;99.90
52943;DHT22;38809;53.300;6.614;2023-02-28T16:02:46;6.80;99.90
52943;DHT22;38809;53.300;6.614;2023-02-28T16:07:41;6.90;99.90
52943;DHT22;38809;53.300;6.614;2023-02-28T16:10:10;6.70;99.90
52943;DHT22;38809;53.300;6.614;2023-02-28T16:12:38;6.60;99.90
52943;DHT22;38809;53.300;6.614;2023-02-28T16:15:28;7.00;99.90
52943;DHT22;38809;53.300;6.614;2023-02-28T16:17:55;6.60;99.90
52943;DHT22;38809;53.300;6.614;2023-02-28T16:20:27;6.60;99.90
52943;DHT22;38809;53.300;6.614;2023-02-28T16:22:54;6.60;99.90
52943;DHT22;38809;53.300;6.614;2023-02-28T16:25:23;6.40;99.90
52943;DHT22;38809;53.300;6.614;2023-02-28T16:27:53;6.50;99.90
52943;DHT22;38809;53.300;6.614;2023-02-28T16:30:24;6.40;99.90
52943;DHT22;38809;53.300;6.614;2023-02-28T16:32:51;6.30;99.90
52943;DHT22;38809;53.300;6.614;2023-02-28T16:35:18;6.30;99.90
52943;DHT22;38809;53.300;6.614;2023-02-28T16:37:44;6.20;99.90
52943;DHT22;38809;53.300;6.614;2023-02-28T16:40:19;6.10;99.90
52943;DHT22;38809;53.300;6.614;2023-02-28T16:42:47;6.10;99.90
52943;DHT22;38809;53.300;6.614;2023-02-28T16:45:23;6.00;99.90
52943;DHT22;38809;53.300;6.614;2023-02-28T16:47:49;6.00;99.90
52943;DHT22;38809;53.300;6.614;2023-02-28T16:50:20;6.00;99.90
52943;DHT22;38809;53.300;6.614;2023-02-28T16:52:46;5.80;99.90
52943;DHT22;38809;53.300;6.614;2023-02-28T16:55:13;5.60;99.90
52943;DHT22;38809;53.300;6.614;2023-02-28T16:57:39;5.50;99.90
52943;DHT22;38809;53.300;6.614;2023-02-28T17:00:08;5.50;99.90
52943;DHT22;38809;53.300;6.614;2023-02-28T17:02:37;5.40;99.90
52943;DHT22;38809;53.300;6.614;2023-02-28T17:05:03;5.30;99.90
52943;DHT22;38809;53.300;6.614;2023-02-28T17:07:29;5.30;99.90
52943;DHT22;38809;53.300;6.614;2023-02-28T17:09:55;5.20;99.90
52943;DHT22;38809;53.300;6.614;2023-02-28T17:12:21;4.90;99.90
52943;DHT22;38809;53.300;6.614;2023-02-28T17:14:46;4.90;99.90
52943;DHT22;38809;53.300;6.614;2023-02-28T17:17:18;5.00;99.90
52943;DHT22;38809;53.300;6.614;2023-02-28T17:19:45;5.00;99.90
52943;DHT22;38809;53.300;6.614;2023-02-28T17:22:10;4.90;99.90
52943;DHT22;38809;53.300;6.614;2023-02-28T17:24:36;4.90;99.90
52943;DHT22;38809;53.300;6.614;2023-02-28T17:27:03;4.90;99.90
52943;DHT22;38809;53.300;6.614;2023-02-28T17:29:29;4.70;99.90
52943;DHT22;38809;53.300;6.614;2023-02-28T17:31:55;4.70;99.90
52943;DHT22;38809;53.300;6.614;2023-02-28T17:34:21;4.70;99.90
52943;DHT22;38809;53.300;6.614;2023-02-28T17:36:49;4.70;99.90
52943;DHT22;38809;53.300;6.614;2023-02-28T17:39:16;4.70;99.90
52943;DHT22;38809;53.300;6.614;2023-02-28T17:41:58;4.90;99.90
52943;DHT22;38809;53.300;6.614;2023-02-28T17:44:24;4.70;99.90
52943;DHT22;38809;53.300;6.614;2023-02-28T17:46:51;4.40;99.90
52943;DHT22;38809;53.300;6.614;2023-02-28T17:49:18;4.40;99.90
52943;DHT22;38809;53.300;6.614;2023-02-28T17:51:44;4.40;99.90
52943;DHT22;38809;53.300;6.614;2023-02-28T17:54:10;4.20;99.90
52943;DHT22;38809;53.300;6.614;2023-02-28T17:56:36;4.00;99.90
52943;DHT22;38809;53.300;6.614;2023-02-28T17:59:02;3.90;99.90
52943;DHT22;38809;53.300;6.614;2023-02-28T18:01:28;4.00;99.90
52943;DHT22;38809;53.300;6.614;2023-02-28T18:03:54;5.20;99.90
52943;DHT22;38809;53.300;6.614;2023-02-28T18:06:28;4.20;99.90
52943;DHT22;38809;53.300;6.614;2023-02-28T18:08:56;3.90;99.90
52943;DHT22;38809;53.300;6.614;2023-02-28T18:11:23;4.00;99.90
52943;DHT22;38809;53.300;6.614;2023-02-28T18:13:51;4.00;99.90
52943;DHT22;38809;53.300;6.614;2023-02-28T18:16:18;3.90;99.90
52943;DHT22;38809;53.300;6.614;2023-02-28T18:18:45;3.90;99.90
52943;DHT22;38809;53.300;6.614;2023-02-28T18:21:12;4.00;99.90
52943;DHT22;38809;53.300;6.614;2023-02-28T18:23:39;3.90;99.90
52943;DHT22;38809;53.300;6.614;2023-02-28T18:26:13;4.00;99.90
52943;DHT22;38809;53.300;6.614;2023-02-28T18:28:39;3.90;99.90
52943;DHT22;38809;53.300;6.614;2023-02-28T18:31:18;4.60;99.90
52943;DHT22;38809;53.300;6.614;2023-02-28T18:33:48;3.90;99.90
52943;DHT22;38809;53.300;6.614;2023-02-28T18:36:15;3.70;99.90